Terminal Aerodrome Forecast
Issued by NWS

Home | Current Version | Previous Version | Text Only | Print | Product List | Glossary On
Versions: 1 2 3 4 5 6 7 8 9 10 11 12 13 14 15 16 17 18 19 20 21 22 23 24 25 26 27 28 29
000
FTUS43 KDLH 252300
TAFBRD
TAF
KBRD 252336Z 2600/2624 15003KT P6SM SCT025 BKN060
     FM260300 18005KT P6SM BKN015
     FM260600 19008KT 6SM -SN OVC012
     FM260800 19008KT 2SM -SN OVC010
      TEMPO 2608/2611 1SM -SN VV006
     FM261400 26007KT 6SM -SN OVC015
     FM262000 30008KT P6SM OVC019=

USA.gov is the U.S. government's official web portal to all federal, state and local government web resources and services.